Terminal Aerodrome Forecast
Issued by NWS Sioux Falls, SD

Home | Current Version | Previous Version | Graphics & Text | Print | Product List | Glossary On
Versions: 1 2 3 4 5 6 7 8 9 10 11 12 13 14 15 16 17 18 19
154
FTUS43 KFSD 191137
TAFFSD
TAF
KFSD 191137Z 1912/2012 01017G24KT 6SM -FZDZSNPL OVC015
     FM191500 02016G26KT 4SM -SN OVC015
     FM191900 02016G26KT 5SM -SN OVC015
     FM200000 01014KT 6SM -SN OVC015
     FM200600 02011KT 3SM -SN OVC015
     FM200700 01011KT 2SM -SN OVC010
     FM201000 36011KT 3SM -SN OVC015=

USA.gov is the U.S. government's official web portal to all federal, state and local government web resources and services.